createdAt,value
2019-03-11T00:00:03.479Z,79.82
2019-03-11T00:00:53.398Z,79.85
2019-03-11T00:01:42.076Z,82.55
2019-03-11T00:02:31.507Z,82.72
2019-03-11T00:03:20.406Z,82.22
2019-03-11T00:04:10.230Z,82.40
2019-03-11T00:04:59.609Z,81.78
2019-03-11T00:05:48.392Z,79.37
2019-03-11T00:06:37.219Z,82.25
2019-03-11T00:07:26.416Z,80.55
2019-03-11T00:08:15.449Z,81.92
2019-03-11T00:09:04.402Z,81.28
2019-03-11T00:09:54.554Z,81.28
2019-03-11T00:11:32.199Z,84.42
2019-03-11T00:12:20.816Z,85.05
2019-03-11T11:13:47.509Z,111.80
2019-03-11T11:14:36.671Z,115.10
2019-03-11T11:15:25.532Z,118.60
2019-03-11T11:16:14.459Z,115.50
2019-03-11T11:17:03.417Z,119.62
2019-03-11T11:17:52.607Z,124.80
2019-03-11T11:18:42.848Z,123.67
2019-03-11T11:19:31.945Z,121.50
2019-03-11T11:20:20.917Z,117.03
2019-03-11T11:21:09.782Z,126.80
2019-03-11T11:21:58.772Z,120.77
2019-03-11T11:23:37.622Z,124.55
2019-03-11T11:25:16.579Z,120.92
2019-03-11T11:26:54.906Z,123.62
2019-03-11T11:27:43.837Z,125.58
2019-03-11T11:28:33.210Z,120.25
2019-03-11T11:29:22.685Z,123.72
2019-03-11T11:30:11.759Z,124.85
2019-03-11T11:31:00.910Z,122.80
2019-03-11T11:31:50.474Z,118.80
2019-03-11T11:32:39.410Z,122.55
2019-03-11T11:33:28.619Z,124.38
2019-03-11T11:35:07.126Z,124.50
2019-03-11T11:35:56.440Z,125.80
2019-03-11T11:36:46.090Z,127.72
2019-03-11T11:37:35.210Z,125.20
2019-03-11T11:38:23.863Z,123.45
2019-03-11T11:39:12.569Z,124.33
2019-03-11T11:40:01.422Z,123.67
2019-03-11T11:40:50.549Z,121.80
2019-03-11T11:41:39.507Z,124.95
2019-03-11T11:42:28.430Z,128.23
2019-03-11T11:43:17.739Z,125.62
2019-03-11T11:44:56.222Z,125.07
2019-03-11T11:45:46.186Z,116.03
2019-03-11T11:46:34.887Z,123.55
2019-03-11T11:47:24.430Z,125.87
2019-03-11T11:48:13.447Z,121.47
2019-03-11T11:49:02.671Z,122.75
2019-03-11T11:50:40.850Z,124.82
2019-03-11T11:51:30.119Z,125.70
2019-03-11T11:52:19.080Z,124.67
2019-03-11T11:53:08.157Z,125.82
2019-03-11T11:54:01.193Z,121.25
2019-03-11T11:54:50.184Z,124.20
2019-03-11T11:55:39.411Z,118.30
2019-03-11T11:57:20.668Z,125.02
2019-03-11T11:58:09.495Z,123.40
2019-03-11T11:58:58.559Z,126.30
2019-03-11T11:59:54.130Z,126.50
2019-03-11T12:00:39.434Z,125.07
2019-03-11T12:01:28.418Z,124.50
2019-03-11T12:02:18.537Z,125.25
2019-03-11T12:03:07.575Z,123.90
2019-03-11T12:05:35.416Z,124.78
2019-03-11T12:06:24.075Z,124.42
2019-03-11T12:07:12.900Z,126.87
2019-03-11T12:08:02.406Z,128.00
2019-03-11T12:10:29.943Z,128.38
2019-03-11T12:11:19.758Z,124.42
2019-03-11T12:12:08.722Z,128.40
2019-03-11T12:13:47.192Z,127.65
2019-03-11T12:14:36.430Z,130.03
2019-03-11T12:15:25.402Z,128.20
2019-03-11T12:16:14.207Z,131.05
2019-03-11T12:17:03.427Z,130.97
2019-03-11T12:17:52.400Z,132.63
2019-03-11T12:18:41.403Z,127.85
2019-03-11T12:19:30.397Z,129.12
2019-03-11T12:20:19.700Z,128.27
2019-03-11T12:21:08.709Z,136.00
2019-03-11T12:21:57.678Z,132.87
2019-03-11T12:22:46.805Z,138.25
2019-03-11T12:23:45.972Z,136.85
2019-03-11T12:24:27.202Z,134.05
2019-03-11T12:25:16.508Z,135.10
2019-03-11T12:26:07.229Z,136.70
2019-03-11T12:26:56.394Z,138.07
2019-03-11T12:27:53.844Z,137.28
2019-03-11T12:28:36.702Z,139.57
2019-03-11T12:29:27.913Z,143.20
2019-03-11T12:30:16.522Z,136.07
2019-03-11T12:31:05.502Z,136.07
2019-03-11T12:31:54.414Z,139.05
2019-03-11T12:32:43.491Z,140.40
2019-03-11T12:33:32.515Z,136.37
2019-03-11T12:34:21.503Z,137.47
2019-03-11T12:35:10.464Z,140.18
2019-03-11T12:35:59.612Z,138.07
2019-03-11T12:37:37.775Z,139.82
2019-03-11T12:38:28.721Z,136.85
2019-03-11T12:39:18.206Z,138.52
2019-03-11T12:40:08.566Z,140.75
2019-03-11T12:40:57.708Z,138.75
2019-03-11T12:42:35.703Z,138.82
2019-03-11T12:43:24.801Z,138.12
2019-03-11T12:44:14.070Z,138.15
2019-03-11T12:45:04.421Z,138.35
2019-03-11T12:45:54.103Z,137.60
2019-03-11T12:47:33.448Z,130.22
2019-03-11T12:49:13.207Z,135.72
2019-03-11T12:50:01.966Z,133.12
2019-03-11T12:51:49.825Z,132.50
2019-03-11T12:52:32.737Z,130.50
2019-03-11T12:53:22.816Z,130.75
2019-03-11T12:54:11.691Z,132.22
2019-03-11T12:55:50.221Z,133.87
2019-03-11T12:56:38.951Z,135.52
2019-03-11T12:57:28.234Z,130.47
2019-03-11T12:58:17.531Z,132.37
2019-03-11T12:59:06.773Z,132.90
2019-03-11T13:00:45.215Z,128.42
2019-03-11T13:01:34.431Z,128.18
2019-03-11T13:02:23.404Z,131.35
2019-03-11T13:03:12.586Z,129.90
2019-03-11T13:04:01.674Z,128.50
2019-03-11T13:04:50.407Z,128.12
2019-03-11T13:05:40.443Z,127.78
2019-03-11T13:06:29.403Z,133.40
2019-03-11T13:07:18.128Z,129.82
2019-03-11T13:08:07.410Z,129.38
2019-03-11T13:08:56.534Z,125.87
2019-03-11T13:09:45.748Z,129.73
2019-03-11T13:12:12.954Z,128.42
2019-03-11T13:13:01.468Z,127.95
2019-03-11T13:13:50.646Z,125.72
2019-03-11T13:15:29.463Z,129.42
2019-03-11T13:16:18.413Z,128.97
2019-03-11T13:17:07.431Z,130.50
2019-03-11T13:17:56.751Z,130.87
2019-03-11T13:18:45.696Z,132.20
2019-03-11T13:19:34.885Z,130.10
2019-03-11T13:20:24.695Z,130.18
2019-03-11T13:21:14.277Z,133.03
2019-03-11T13:22:03.453Z,135.82
2019-03-11T13:22:52.430Z,134.78
2019-03-11T13:23:41.822Z,133.50
2019-03-11T13:24:30.841Z,134.87
2019-03-11T13:25:19.898Z,131.85
2019-03-11T13:26:09.390Z,133.15
2019-03-11T13:26:58.503Z,128.57
2019-03-11T13:27:47.225Z,133.05
2019-03-11T13:28:36.417Z,131.37
2019-03-11T13:29:25.718Z,130.82
2019-03-11T13:31:05.394Z,131.93
2019-03-11T13:31:54.604Z,133.40
2019-03-11T13:32:43.393Z,130.40
2019-03-11T13:33:32.500Z,135.78
2019-03-11T13:34:21.172Z,134.20
2019-03-11T13:35:10.239Z,136.03
2019-03-11T13:35:59.447Z,132.07
2019-03-11T13:36:48.514Z,125.80
2019-03-11T13:37:37.701Z,129.15
2019-03-11T13:38:26.495Z,131.03
2019-03-11T13:39:15.573Z,135.60
2019-03-11T13:40:04.519Z,129.07
2019-03-11T13:40:53.394Z,123.60
2019-03-11T13:41:42.202Z,128.10
2019-03-11T13:42:31.394Z,135.35
2019-03-11T13:43:20.480Z,130.75
2019-03-11T13:44:09.710Z,132.25
2019-03-11T13:44:58.720Z,125.53
2019-03-11T13:46:37.140Z,128.70
2019-03-11T13:47:26.401Z,124.78
2019-03-11T13:48:15.660Z,126.05
2019-03-11T13:49:54.504Z,132.20
2019-03-11T13:50:43.567Z,130.60
2019-03-11T13:52:22.419Z,131.93
2019-03-11T13:53:12.723Z,125.60
2019-03-11T13:54:01.711Z,127.20
2019-03-11T13:54:51.243Z,131.12
2019-03-11T13:55:40.166Z,131.30
2019-03-11T13:56:28.869Z,123.90
2019-03-11T13:57:17.905Z,131.63
2019-03-11T13:58:06.756Z,134.00
2019-03-11T13:58:55.798Z,127.60
2019-03-11T13:59:44.609Z,130.85
2019-03-11T14:01:23.220Z,134.30
2019-03-11T14:02:12.242Z,128.95
2019-03-11T14:03:01.413Z,123.80
2019-03-11T14:03:50.443Z,131.60
2019-03-11T14:04:41.560Z,129.12
2019-03-11T14:05:30.684Z,130.55
2019-03-11T14:07:59.410Z,128.68
2019-03-11T14:08:49.779Z,130.52
2019-03-11T14:09:40.269Z,132.70
2019-03-11T14:10:29.411Z,135.82
2019-03-11T14:11:18.245Z,130.27
2019-03-11T14:12:07.401Z,133.52
2019-03-11T14:12:56.219Z,144.02
2019-03-11T14:13:44.961Z,144.80
2019-03-11T14:14:33.728Z,129.95
2019-03-11T14:15:22.547Z,134.32
2019-03-11T14:16:11.418Z,136.10
2019-03-11T14:17:00.128Z,135.18
2019-03-11T14:17:49.800Z,137.22
2019-03-11T14:19:28.092Z,139.12
2019-03-11T14:20:17.137Z,143.60
2019-03-11T14:21:06.215Z,138.10
2019-03-11T14:21:55.594Z,139.18
2019-03-11T14:22:44.733Z,133.75
2019-03-11T14:24:23.649Z,133.07
2019-03-11T14:26:01.698Z,135.40
2019-03-11T14:26:50.550Z,138.37
2019-03-11T14:27:40.564Z,131.07
2019-03-11T14:28:29.653Z,141.62
2019-03-11T14:29:19.198Z,144.07
2019-03-11T14:30:08.748Z,139.75
2019-03-11T14:30:57.903Z,141.55
2019-03-11T14:31:47.018Z,137.32
2019-03-11T14:32:36.415Z,141.45
2019-03-11T14:33:25.542Z,140.20
2019-03-11T14:34:14.707Z,142.18
2019-03-11T14:35:04.215Z,143.87
2019-03-11T14:35:53.267Z,133.55
2019-03-11T14:37:31.933Z,142.05
2019-03-11T14:38:20.739Z,141.12
2019-03-11T14:39:11.939Z,139.30
2019-03-11T14:40:00.814Z,140.75
2019-03-11T14:40:50.412Z,143.15
2019-03-11T14:41:39.444Z,144.22
2019-03-11T14:42:28.480Z,141.37
2019-03-11T14:43:17.389Z,137.05
2019-03-11T14:44:06.243Z,147.98
2019-03-11T14:44:55.203Z,145.30
2019-03-11T14:45:43.768Z,144.80
2019-03-11T14:47:22.568Z,141.75
2019-03-11T14:48:12.085Z,139.20
2019-03-11T14:49:01.176Z,143.22
2019-03-11T14:49:49.872Z,142.00
2019-03-11T14:50:38.781Z,143.40
2019-03-11T14:51:27.701Z,146.22
2019-03-11T14:52:16.583Z,145.53
2019-03-11T14:53:06.680Z,144.53
2019-03-11T14:55:34.709Z,135.07
2019-03-11T14:56:23.647Z,138.10
2019-03-11T14:57:12.593Z,139.68
2019-03-11T14:58:01.744Z,136.20
2019-03-11T14:59:39.722Z,134.60
2019-03-11T15:01:18.235Z,139.10
2019-03-11T15:02:07.196Z,134.67
2019-03-11T15:02:56.167Z,138.25
2019-03-11T15:03:45.652Z,136.20
2019-03-11T15:04:34.728Z,134.95
2019-03-11T15:06:13.192Z,135.20
2019-03-11T15:07:02.247Z,135.22
2019-03-11T15:07:50.931Z,136.47
2019-03-11T15:08:40.424Z,136.37
2019-03-11T15:09:29.616Z,130.45
2019-03-11T15:10:18.683Z,137.35
2019-03-11T15:11:07.700Z,137.68
2019-03-11T15:11:56.909Z,138.50
2019-03-11T15:12:46.265Z,135.85
2019-03-11T15:13:35.115Z,137.57
2019-03-11T15:14:24.403Z,136.50
2019-03-11T15:15:13.661Z,134.35
2019-03-11T15:16:02.449Z,133.30
2019-03-11T15:16:52.030Z,137.57
2019-03-11T15:17:41.408Z,138.18
2019-03-11T15:18:30.488Z,140.90
2019-03-11T15:19:21.462Z,135.55
2019-03-11T15:20:11.253Z,134.97
2019-03-11T15:21:00.213Z,137.22
2019-03-11T15:21:49.604Z,139.12
2019-03-11T15:22:39.521Z,137.45
2019-03-11T15:23:28.475Z,134.97
2019-03-11T15:25:07.224Z,136.60
2019-03-11T15:25:55.915Z,135.30
2019-03-11T15:26:44.885Z,137.15
2019-03-11T15:27:33.896Z,135.85
2019-03-11T15:28:23.249Z,132.05
2019-03-11T15:29:12.684Z,134.55
2019-03-11T15:30:01.705Z,136.30
2019-03-11T15:30:50.894Z,134.87
2019-03-11T15:31:39.754Z,137.05
2019-03-11T15:33:19.161Z,138.80
2019-03-11T15:34:08.106Z,138.15
2019-03-11T15:34:57.411Z,138.43
2019-03-11T15:35:46.418Z,139.05
2019-03-11T15:36:35.337Z,137.18
2019-03-11T15:37:24.220Z,140.90
2019-03-11T15:38:13.788Z,141.25
2019-03-11T15:40:49.995Z,137.40
2019-03-11T15:41:44.101Z,142.10
2019-03-11T15:42:32.982Z,136.25
2019-03-11T15:43:21.883Z,138.95
2019-03-11T15:44:10.865Z,140.60
2019-03-11T15:44:59.943Z,142.57
2019-03-11T15:45:49.284Z,142.53
2019-03-11T15:46:39.557Z,145.53
2019-03-11T15:47:28.460Z,147.10
2019-03-11T15:48:17.204Z,147.05
2019-03-11T15:49:06.293Z,143.78
2019-03-11T15:49:55.171Z,146.53
2019-03-11T15:50:44.406Z,143.50
2019-03-11T15:51:36.846Z,142.35
2019-03-11T15:52:24.222Z,141.70
2019-03-11T15:53:12.934Z,144.85
2019-03-11T15:54:01.893Z,141.60
2019-03-11T15:54:51.282Z,144.30
2019-03-11T15:55:40.696Z,146.25
2019-03-11T15:56:29.506Z,144.72
2019-03-11T15:57:18.134Z,149.10
2019-03-11T15:58:07.611Z,144.32
2019-03-11T15:58:57.872Z,144.68
2019-03-11T15:59:47.000Z,146.82
2019-03-11T16:00:37.693Z,147.30
2019-03-11T16:02:16.360Z,147.80
2019-03-11T16:03:05.422Z,150.03
2019-03-11T16:03:54.393Z,149.93
2019-03-11T16:04:43.391Z,148.90
2019-03-11T16:05:32.404Z,145.68
2019-03-11T16:06:21.411Z,151.95
2019-03-11T16:07:10.429Z,147.55
2019-03-11T16:07:59.625Z,147.85
2019-03-11T16:09:38.214Z,149.15
2019-03-11T16:10:26.848Z,151.97
2019-03-11T16:11:15.737Z,152.45
2019-03-11T16:12:54.204Z,150.20
2019-03-11T16:13:43.460Z,152.27
2019-03-11T16:14:32.398Z,151.20
2019-03-11T16:15:21.273Z,158.40
2019-03-11T16:16:11.457Z,162.85
2019-03-11T16:17:00.676Z,157.88
2019-03-11T16:17:49.893Z,163.95
2019-03-11T16:18:38.875Z,168.72
2019-03-11T16:19:27.896Z,156.40
2019-03-11T16:20:16.952Z,163.57
2019-03-11T16:21:05.694Z,158.42
2019-03-11T16:23:33.242Z,156.87
